sensor_id;sensor_type;location;lat;lon;timestamp;temperature;humidity
1650;DHT22;822;53.670;8.676;2023-02-23T00:01:34;7.50;96.20
1650;DHT22;822;53.670;8.676;2023-02-23T00:04:01;7.50;96.30
1650;DHT22;822;53.670;8.676;2023-02-23T00:06:30;7.50;96.30
1650;DHT22;822;53.670;8.676;2023-02-23T00:08:58;7.50;96.30
1650;DHT22;822;53.670;8.676;2023-02-23T00:11:26;7.50;96.30
1650;DHT22;822;53.670;8.676;2023-02-23T00:13:55;7.50;96.40
1650;DHT22;822;53.670;8.676;2023-02-23T00:16:24;7.50;96.30
1650;DHT22;822;53.670;8.676;2023-02-23T00:18:54;7.50;96.40
1650;DHT22;822;53.670;8.676;2023-02-23T00:21:24;7.50;96.40
1650;DHT22;822;53.670;8.676;2023-02-23T00:23:55;7.50;96.40
1650;DHT22;822;53.670;8.676;2023-02-23T00:26:24;7.50;96.60
1650;DHT22;822;53.670;8.676;2023-02-23T00:28:54;7.50;96.40
1650;DHT22;822;53.670;8.676;2023-02-23T00:31:23;7.50;96.40
1650;DHT22;822;53.670;8.676;2023-02-23T00:33:52;7.50;96.40
1650;DHT22;822;53.670;8.676;2023-02-23T00:36:21;7.50;96.40
1650;DHT22;822;53.670;8.676;2023-02-23T00:38:52;7.50;96.40
1650;DHT22;822;53.670;8.676;2023-02-23T00:41:19;7.50;96.40
1650;DHT22;822;53.670;8.676;2023-02-23T00:43:55;7.50;96.40
1650;DHT22;822;53.670;8.676;2023-02-23T00:46:24;7.40;96.40
1650;DHT22;822;53.670;8.676;2023-02-23T00:48:53;7.50;96.40
1650;DHT22;822;53.670;8.676;2023-02-23T00:51:21;7.40;96.40
1650;DHT22;822;53.670;8.676;2023-02-23T00:53:53;7.40;96.40
1650;DHT22;822;53.670;8.676;2023-02-23T00:56:21;7.40;96.50
1650;DHT22;822;53.670;8.676;2023-02-23T00:58:48;7.40;96.50
1650;DHT22;822;53.670;8.676;2023-02-23T01:01:17;7.40;96.50
1650;DHT22;822;53.670;8.676;2023-02-23T01:03:45;7.40;96.50
1650;DHT22;822;53.670;8.676;2023-02-23T01:06:14;7.40;96.50
1650;DHT22;822;53.670;8.676;2023-02-23T01:08:44;7.40;96.50
1650;DHT22;822;53.670;8.676;2023-02-23T01:11:16;7.40;96.50
1650;DHT22;822;53.670;8.676;2023-02-23T01:13:44;7.40;96.50
1650;DHT22;822;53.670;8.676;2023-02-23T01:16:14;7.40;96.50
1650;DHT22;822;53.670;8.676;2023-02-23T01:18:43;7.40;96.50
1650;DHT22;822;53.670;8.676;2023-02-23T01:21:15;7.40;96.50
1650;DHT22;822;53.670;8.676;2023-02-23T01:23:43;7.30;96.50
1650;DHT22;822;53.670;8.676;2023-02-23T01:26:16;7.30;96.50
1650;DHT22;822;53.670;8.676;2023-02-23T01:28:46;7.30;96.50
1650;DHT22;822;53.670;8.676;2023-02-23T01:31:14;7.30;96.50
1650;DHT22;822;53.670;8.676;2023-02-23T01:33:42;7.30;96.50
1650;DHT22;822;53.670;8.676;2023-02-23T01:36:10;7.30;96.60
1650;DHT22;822;53.670;8.676;2023-02-23T01:38:38;7.30;96.60
1650;DHT22;822;53.670;8.676;2023-02-23T01:41:05;7.30;96.60
1650;DHT22;822;53.670;8.676;2023-02-23T01:43:53;7.30;96.60
1650;DHT22;822;53.670;8.676;2023-02-23T01:46:21;7.20;96.60
1650;DHT22;822;53.670;8.676;2023-02-23T01:48:51;7.20;96.60
1650;DHT22;822;53.670;8.676;2023-02-23T01:51:22;7.20;96.60
1650;DHT22;822;53.670;8.676;2023-02-23T01:53:55;7.20;96.60
1650;DHT22;822;53.670;8.676;2023-02-23T01:56:26;7.20;96.60
1650;DHT22;822;53.670;8.676;2023-02-23T01:58:56;7.20;96.60
1650;DHT22;822;53.670;8.676;2023-02-23T02:01:25;7.20;96.60
1650;DHT22;822;53.670;8.676;2023-02-23T02:04:00;7.20;96.60
1650;DHT22;822;53.670;8.676;2023-02-23T02:06:30;7.20;96.60
1650;DHT22;822;53.670;8.676;2023-02-23T02:09:01;7.20;96.60
1650;DHT22;822;53.670;8.676;2023-02-23T02:11:31;7.20;96.60
1650;DHT22;822;53.670;8.676;2023-02-23T02:14:05;7.20;96.60
1650;DHT22;822;53.670;8.676;2023-02-23T02:17:16;7.10;96.60
1650;DHT22;822;53.670;8.676;2023-02-23T02:26:17;7.10;96.70
1650;DHT22;822;53.670;8.676;2023-02-23T02:32:20;7.10;96.70
1650;DHT22;822;53.670;8.676;2023-02-23T02:38:18;7.00;96.70
1650;DHT22;822;53.670;8.676;2023-02-23T02:40:57;7.00;96.70
1650;DHT22;822;53.670;8.676;2023-02-23T02:43:36;7.10;96.70
1650;DHT22;822;53.670;8.676;2023-02-23T02:46:10;7.10;96.70
1650;DHT22;822;53.670;8.676;2023-02-23T02:48:45;7.10;96.70
1650;DHT22;822;53.670;8.676;2023-02-23T02:51:21;7.10;96.70
1650;DHT22;822;53.670;8.676;2023-02-23T02:53:57;7.20;96.80
1650;DHT22;822;53.670;8.676;2023-02-23T02:56:33;7.20;96.80
1650;DHT22;822;53.670;8.676;2023-02-23T02:59:06;7.20;96.80
1650;DHT22;822;53.670;8.676;2023-02-23T03:01:53;7.20;96.80
1650;DHT22;822;53.670;8.676;2023-02-23T03:04:37;7.30;96.80
1650;DHT22;822;53.670;8.676;2023-02-23T03:07:30;7.30;96.80
1650;DHT22;822;53.670;8.676;2023-02-23T03:10:22;7.30;96.80
1650;DHT22;822;53.670;8.676;2023-02-23T03:13:16;7.30;96.80
1650;DHT22;822;53.670;8.676;2023-02-23T03:16:12;7.30;96.80
1650;DHT22;822;53.670;8.676;2023-02-23T03:19:08;7.30;96.80
1650;DHT22;822;53.670;8.676;2023-02-23T03:21:59;7.30;96.80
1650;DHT22;822;53.670;8.676;2023-02-23T03:24:52;7.30;96.80
1650;DHT22;822;53.670;8.676;2023-02-23T03:27:44;7.40;96.80
1650;DHT22;822;53.670;8.676;2023-02-23T03:30:39;7.40;96.80
1650;DHT22;822;53.670;8.676;2023-02-23T03:33:31;7.40;96.80
1650;DHT22;822;53.670;8.676;2023-02-23T03:36:19;7.40;96.80
1650;DHT22;822;53.670;8.676;2023-02-23T03:39:16;7.40;96.80
1650;DHT22;822;53.670;8.676;2023-02-23T03:42:06;7.40;96.80
1650;DHT22;822;53.670;8.676;2023-02-23T03:44:54;7.40;96.80
1650;DHT22;822;53.670;8.676;2023-02-23T03:47:43;7.40;96.90
1650;DHT22;822;53.670;8.676;2023-02-23T03:50:32;7.40;96.90
1650;DHT22;822;53.670;8.676;2023-02-23T03:53:24;7.40;96.90
1650;DHT22;822;53.670;8.676;2023-02-23T03:56:11;7.40;96.90
1650;DHT22;822;53.670;8.676;2023-02-23T03:58:59;7.40;96.90
1650;DHT22;822;53.670;8.676;2023-02-23T04:01:46;7.30;96.90
1650;DHT22;822;53.670;8.676;2023-02-23T04:04:32;7.30;96.90
1650;DHT22;822;53.670;8.676;2023-02-23T04:07:18;7.30;97.00
1650;DHT22;822;53.670;8.676;2023-02-23T04:10:04;7.30;97.00
1650;DHT22;822;53.670;8.676;2023-02-23T04:12:53;7.30;97.30
1650;DHT22;822;53.670;8.676;2023-02-23T04:15:46;7.30;97.00
1650;DHT22;822;53.670;8.676;2023-02-23T04:18:16;7.30;97.30
1650;DHT22;822;53.670;8.676;2023-02-23T04:20:43;7.20;97.00
1650;DHT22;822;53.670;8.676;2023-02-23T04:23:11;7.20;97.00
1650;DHT22;822;53.670;8.676;2023-02-23T04:25:41;7.20;97.00
1650;DHT22;822;53.670;8.676;2023-02-23T04:28:08;7.20;97.10
1650;DHT22;822;53.670;8.676;2023-02-23T04:30:35;7.20;97.10
1650;DHT22;822;53.670;8.676;2023-02-23T04:33:02;7.20;97.10
1650;DHT22;822;53.670;8.676;2023-02-23T04:35:30;7.20;97.10
1650;DHT22;822;53.670;8.676;2023-02-23T04:37:57;7.20;97.10
1650;DHT22;822;53.670;8.676;2023-02-23T04:40:25;7.20;97.10
1650;DHT22;822;53.670;8.676;2023-02-23T04:42:53;7.20;97.10
1650;DHT22;822;53.670;8.676;2023-02-23T04:45:20;7.10;97.10
1650;DHT22;822;53.670;8.676;2023-02-23T04:47:48;7.10;97.10
1650;DHT22;822;53.670;8.676;2023-02-23T04:50:16;7.10;97.10
1650;DHT22;822;53.670;8.676;2023-02-23T04:52:45;7.10;97.10
1650;DHT22;822;53.670;8.676;2023-02-23T04:55:16;7.10;97.10
1650;DHT22;822;53.670;8.676;2023-02-23T04:57:44;7.10;97.10
1650;DHT22;822;53.670;8.676;2023-02-23T05:00:12;7.10;97.10
1650;DHT22;822;53.670;8.676;2023-02-23T05:02:39;7.10;97.10
1650;DHT22;822;53.670;8.676;2023-02-23T05:05:10;7.10;97.10
1650;DHT22;822;53.670;8.676;2023-02-23T05:07:37;7.10;97.20
1650;DHT22;822;53.670;8.676;2023-02-23T05:10:07;7.10;97.20
1650;DHT22;822;53.670;8.676;2023-02-23T05:12:34;7.10;97.20
1650;DHT22;822;53.670;8.676;2023-02-23T05:15:02;7.10;97.20
1650;DHT22;822;53.670;8.676;2023-02-23T05:17:29;7.10;97.20
1650;DHT22;822;53.670;8.676;2023-02-23T05:19:56;7.10;97.20
1650;DHT22;822;53.670;8.676;2023-02-23T05:22:23;7.10;97.20
1650;DHT22;822;53.670;8.676;2023-02-23T05:24:50;7.10;97.20
1650;DHT22;822;53.670;8.676;2023-02-23T05:27:19;7.10;97.20
1650;DHT22;822;53.670;8.676;2023-02-23T05:29:46;7.10;97.20
1650;DHT22;822;53.670;8.676;2023-02-23T05:32:13;7.10;97.20
1650;DHT22;822;53.670;8.676;2023-02-23T05:34:40;7.10;97.20
1650;DHT22;822;53.670;8.676;2023-02-23T05:37:07;7.10;97.20
1650;DHT22;822;53.670;8.676;2023-02-23T05:39:34;7.10;97.20
1650;DHT22;822;53.670;8.676;2023-02-23T05:42:01;7.10;97.10
1650;DHT22;822;53.670;8.676;2023-02-23T05:44:30;7.10;97.20
1650;DHT22;822;53.670;8.676;2023-02-23T05:46:57;7.10;97.10
1650;DHT22;822;53.670;8.676;2023-02-23T05:49:24;7.10;97.10
1650;DHT22;822;53.670;8.676;2023-02-23T05:51:51;7.10;97.10
1650;DHT22;822;53.670;8.676;2023-02-23T05:54:18;7.10;97.10
1650;DHT22;822;53.670;8.676;2023-02-23T05:56:45;7.10;97.10
1650;DHT22;822;53.670;8.676;2023-02-23T05:59:13;7.10;97.20
1650;DHT22;822;53.670;8.676;2023-02-23T06:01:43;7.10;97.20
1650;DHT22;822;53.670;8.676;2023-02-23T06:04:10;7.10;97.20
1650;DHT22;822;53.670;8.676;2023-02-23T06:06:39;7.10;97.20
1650;DHT22;822;53.670;8.676;2023-02-23T06:09:06;7.10;97.20
1650;DHT22;822;53.670;8.676;2023-02-23T06:11:33;7.10;97.20
1650;DHT22;822;53.670;8.676;2023-02-23T06:14:00;7.00;97.10
1650;DHT22;822;53.670;8.676;2023-02-23T06:16:27;7.10;97.20
1650;DHT22;822;53.670;8.676;2023-02-23T06:18:56;7.00;97.20
1650;DHT22;822;53.670;8.676;2023-02-23T06:21:23;7.00;97.10
1650;DHT22;822;53.670;8.676;2023-02-23T06:23:50;7.00;97.20
1650;DHT22;822;53.670;8.676;2023-02-23T06:26:18;7.00;97.10
1650;DHT22;822;53.670;8.676;2023-02-23T06:28:45;7.00;97.20
1650;DHT22;822;53.670;8.676;2023-02-23T06:31:12;7.00;97.20
1650;DHT22;822;53.670;8.676;2023-02-23T06:33:39;7.00;97.30
1650;DHT22;822;53.670;8.676;2023-02-23T06:36:08;7.00;97.20
1650;DHT22;822;53.670;8.676;2023-02-23T06:38:36;7.00;97.20
1650;DHT22;822;53.670;8.676;2023-02-23T06:41:07;7.00;97.20
1650;DHT22;822;53.670;8.676;2023-02-23T06:43:34;7.00;97.20
1650;DHT22;822;53.670;8.676;2023-02-23T06:46:04;7.00;97.20
1650;DHT22;822;53.670;8.676;2023-02-23T06:48:32;6.90;97.20
1650;DHT22;822;53.670;8.676;2023-02-23T06:51:00;6.90;97.20
1650;DHT22;822;53.670;8.676;2023-02-23T06:53:28;6.90;97.20
1650;DHT22;822;53.670;8.676;2023-02-23T06:55:56;6.90;97.20
1650;DHT22;822;53.670;8.676;2023-02-23T06:58:23;6.90;97.20
1650;DHT22;822;53.670;8.676;2023-02-23T07:00:50;6.90;97.20
1650;DHT22;822;53.670;8.676;2023-02-23T07:03:18;6.90;97.20
1650;DHT22;822;53.670;8.676;2023-02-23T07:05:46;6.90;97.20
1650;DHT22;822;53.670;8.676;2023-02-23T07:08:13;6.90;97.20
1650;DHT22;822;53.670;8.676;2023-02-23T07:10:41;6.90;97.20
1650;DHT22;822;53.670;8.676;2023-02-23T07:13:08;6.90;97.20
1650;DHT22;822;53.670;8.676;2023-02-23T07:15:38;6.90;97.20
1650;DHT22;822;53.670;8.676;2023-02-23T07:18:06;6.90;97.20
1650;DHT22;822;53.670;8.676;2023-02-23T07:20:34;6.90;97.20
1650;DHT22;822;53.670;8.676;2023-02-23T07:23:01;7.00;97.30
1650;DHT22;822;53.670;8.676;2023-02-23T07:25:28;7.00;97.30
1650;DHT22;822;53.670;8.676;2023-02-23T07:27:57;7.00;97.30
1650;DHT22;822;53.670;8.676;2023-02-23T07:30:24;7.00;97.30
1650;DHT22;822;53.670;8.676;2023-02-23T07:32:52;7.00;97.30
1650;DHT22;822;53.670;8.676;2023-02-23T07:35:20;7.00;97.30
1650;DHT22;822;53.670;8.676;2023-02-23T07:37:47;7.00;97.20
1650;DHT22;822;53.670;8.676;2023-02-23T07:40:15;7.00;97.20
1650;DHT22;822;53.670;8.676;2023-02-23T07:42:44;7.00;97.20
1650;DHT22;822;53.670;8.676;2023-02-23T07:45:12;7.00;97.20
1650;DHT22;822;53.670;8.676;2023-02-23T07:47:41;7.00;97.20
1650;DHT22;822;53.670;8.676;2023-02-23T07:50:10;7.10;97.20
1650;DHT22;822;53.670;8.676;2023-02-23T07:52:38;7.10;97.20
1650;DHT22;822;53.670;8.676;2023-02-23T07:55:06;7.10;97.20
1650;DHT22;822;53.670;8.676;2023-02-23T07:57:34;7.10;97.20
1650;DHT22;822;53.670;8.676;2023-02-23T08:00:01;7.10;97.20
1650;DHT22;822;53.670;8.676;2023-02-23T08:02:30;7.10;97.20
1650;DHT22;822;53.670;8.676;2023-02-23T08:04:57;7.10;97.20
1650;DHT22;822;53.670;8.676;2023-02-23T08:07:25;7.10;97.20
1650;DHT22;822;53.670;8.676;2023-02-23T08:09:52;7.10;97.20
1650;DHT22;822;53.670;8.676;2023-02-23T08:12:19;7.10;97.20
1650;DHT22;822;53.670;8.676;2023-02-23T08:14:46;7.10;97.20
1650;DHT22;822;53.670;8.676;2023-02-23T08:17:13;7.10;97.20
1650;DHT22;822;53.670;8.676;2023-02-23T08:19:41;7.10;97.20
1650;DHT22;822;53.670;8.676;2023-02-23T08:22:09;7.20;97.20
1650;DHT22;822;53.670;8.676;2023-02-23T08:24:36;7.20;97.20
1650;DHT22;822;53.670;8.676;2023-02-23T08:27:03;7.10;97.10
1650;DHT22;822;53.670;8.676;2023-02-23T08:29:30;7.20;97.20
1650;DHT22;822;53.670;8.676;2023-02-23T08:32:01;7.10;97.10
1650;DHT22;822;53.670;8.676;2023-02-23T08:34:28;7.20;97.10
1650;DHT22;822;53.670;8.676;2023-02-23T08:36:57;7.20;97.10
1650;DHT22;822;53.670;8.676;2023-02-23T08:39:24;7.20;97.10
1650;DHT22;822;53.670;8.676;2023-02-23T08:41:51;7.20;97.10
1650;DHT22;822;53.670;8.676;2023-02-23T08:44:20;7.20;97.10
1650;DHT22;822;53.670;8.676;2023-02-23T08:46:47;7.20;97.10
1650;DHT22;822;53.670;8.676;2023-02-23T08:49:14;7.20;97.10
1650;DHT22;822;53.670;8.676;2023-02-23T08:51:41;7.20;97.10
1650;DHT22;822;53.670;8.676;2023-02-23T08:54:13;7.20;97.10
1650;DHT22;822;53.670;8.676;2023-02-23T08:56:44;7.20;97.10
1650;DHT22;822;53.670;8.676;2023-02-23T08:59:12;7.20;97.10
1650;DHT22;822;53.670;8.676;2023-02-23T09:01:39;7.30;97.00
1650;DHT22;822;53.670;8.676;2023-02-23T09:04:07;7.30;96.90
1650;DHT22;822;53.670;8.676;2023-02-23T09:06:36;7.30;96.90
1650;DHT22;822;53.670;8.676;2023-02-23T09:09:03;7.30;96.90
1650;DHT22;822;53.670;8.676;2023-02-23T09:11:32;7.30;96.90
1650;DHT22;822;53.670;8.676;2023-02-23T09:13:59;7.30;96.90
1650;DHT22;822;53.670;8.676;2023-02-23T09:16:26;7.30;96.90
1650;DHT22;822;53.670;8.676;2023-02-23T09:18:53;7.40;97.00
1650;DHT22;822;53.670;8.676;2023-02-23T09:21:24;7.40;96.90
1650;DHT22;822;53.670;8.676;2023-02-23T09:23:52;7.30;96.90
1650;DHT22;822;53.670;8.676;2023-02-23T09:26:21;7.40;96.80
1650;DHT22;822;53.670;8.676;2023-02-23T09:28:50;7.30;96.60
1650;DHT22;822;53.670;8.676;2023-02-23T09:31:20;7.30;96.70
1650;DHT22;822;53.670;8.676;2023-02-23T09:33:47;7.40;96.70
1650;DHT22;822;53.670;8.676;2023-02-23T09:36:17;7.40;96.50
1650;DHT22;822;53.670;8.676;2023-02-23T09:38:46;7.40;96.40
1650;DHT22;822;53.670;8.676;2023-02-23T09:41:49;7.40;96.30
1650;DHT22;822;53.670;8.676;2023-02-23T09:44:28;7.40;96.40
1650;DHT22;822;53.670;8.676;2023-02-23T09:47:10;7.40;96.40
1650;DHT22;822;53.670;8.676;2023-02-23T09:49:41;7.50;96.40
1650;DHT22;822;53.670;8.676;2023-02-23T09:52:15;7.50;96.40
1650;DHT22;822;53.670;8.676;2023-02-23T09:54:43;7.50;96.40
1650;DHT22;822;53.670;8.676;2023-02-23T09:57:15;7.50;96.30
1650;DHT22;822;53.670;8.676;2023-02-23T09:59:44;7.60;96.20
1650;DHT22;822;53.670;8.676;2023-02-23T10:02:20;7.60;95.70
1650;DHT22;822;53.670;8.676;2023-02-23T10:04:50;7.60;95.50
1650;DHT22;822;53.670;8.676;2023-02-23T10:07:23;7.60;95.60
1650;DHT22;822;53.670;8.676;2023-02-23T10:10:02;7.60;95.50
1650;DHT22;822;53.670;8.676;2023-02-23T10:12:37;7.70;95.50
1650;DHT22;822;53.670;8.676;2023-02-23T10:15:22;7.70;95.30
1650;DHT22;822;53.670;8.676;2023-02-23T10:17:59;7.70;95.20
1650;DHT22;822;53.670;8.676;2023-02-23T10:20:35;7.80;95.20
1650;DHT22;822;53.670;8.676;2023-02-23T10:23:07;7.90;95.10
1650;DHT22;822;53.670;8.676;2023-02-23T10:25:40;7.90;95.10
1650;DHT22;822;53.670;8.676;2023-02-23T10:28:12;8.00;94.20
1650;DHT22;822;53.670;8.676;2023-02-23T10:30:43;8.00;94.60
1650;DHT22;822;53.670;8.676;2023-02-23T10:33:13;8.10;93.90
1650;DHT22;822;53.670;8.676;2023-02-23T10:35:42;8.10;93.70
1650;DHT22;822;53.670;8.676;2023-02-23T10:38:14;8.10;93.70
1650;DHT22;822;53.670;8.676;2023-02-23T10:40:43;8.20;93.50
1650;DHT22;822;53.670;8.676;2023-02-23T10:43:12;8.20;93.40
1650;DHT22;822;53.670;8.676;2023-02-23T10:45:50;8.20;93.20
1650;DHT22;822;53.670;8.676;2023-02-23T10:48:19;8.20;93.10
1650;DHT22;822;53.670;8.676;2023-02-23T10:50:49;8.30;93.10
1650;DHT22;822;53.670;8.676;2023-02-23T10:53:20;8.30;92.90
1650;DHT22;822;53.670;8.676;2023-02-23T10:56:01;8.30;92.70
1650;DHT22;822;53.670;8.676;2023-02-23T10:58:29;8.40;92.80
1650;DHT22;822;53.670;8.676;2023-02-23T11:00:59;8.40;92.50
1650;DHT22;822;53.670;8.676;2023-02-23T11:03:32;8.50;92.60
1650;DHT22;822;53.670;8.676;2023-02-23T11:06:00;8.50;92.00
1650;DHT22;822;53.670;8.676;2023-02-23T11:08:30;8.50;91.90
1650;DHT22;822;53.670;8.676;2023-02-23T11:11:10;8.60;92.00
1650;DHT22;822;53.670;8.676;2023-02-23T11:13:44;8.60;91.80
1650;DHT22;822;53.670;8.676;2023-02-23T11:16:14;8.60;91.70
1650;DHT22;822;53.670;8.676;2023-02-23T11:18:49;8.60;91.80
1650;DHT22;822;53.670;8.676;2023-02-23T11:21:24;8.60;92.00
1650;DHT22;822;53.670;8.676;2023-02-23T11:23:52;8.70;92.20
1650;DHT22;822;53.670;8.676;2023-02-23T11:26:28;8.70;92.10
1650;DHT22;822;53.670;8.676;2023-02-23T11:28:58;8.70;92.40
1650;DHT22;822;53.670;8.676;2023-02-23T11:31:31;8.70;92.60
1650;DHT22;822;53.670;8.676;2023-02-23T11:34:02;8.80;92.80
1650;DHT22;822;53.670;8.676;2023-02-23T11:36:31;8.80;92.90
1650;DHT22;822;53.670;8.676;2023-02-23T11:39:05;8.80;93.10
1650;DHT22;822;53.670;8.676;2023-02-23T11:41:34;8.90;93.20
1650;DHT22;822;53.670;8.676;2023-02-23T11:44:02;8.90;93.30
1650;DHT22;822;53.670;8.676;2023-02-23T11:46:34;8.90;93.10
1650;DHT22;822;53.670;8.676;2023-02-23T11:49:04;8.90;92.90
1650;DHT22;822;53.670;8.676;2023-02-23T11:51:37;8.80;92.90
1650;DHT22;822;53.670;8.676;2023-02-23T11:54:07;8.80;93.10
1650;DHT22;822;53.670;8.676;2023-02-23T11:56:47;8.80;93.10
1650;DHT22;822;53.670;8.676;2023-02-23T11:59:17;8.70;93.20
1650;DHT22;822;53.670;8.676;2023-02-23T12:01:49;8.70;93.40
1650;DHT22;822;53.670;8.676;2023-02-23T12:04:26;8.70;93.50
1650;DHT22;822;53.670;8.676;2023-02-23T12:10:15;8.80;93.60
1650;DHT22;822;53.670;8.676;2023-02-23T12:12:53;8.80;93.60
1650;DHT22;822;53.670;8.676;2023-02-23T12:15:36;8.80;93.50
1650;DHT22;822;53.670;8.676;2023-02-23T12:18:13;8.80;93.50
1650;DHT22;822;53.670;8.676;2023-02-23T12:20:44;8.80;93.60
1650;DHT22;822;53.670;8.676;2023-02-23T12:23:18;8.70;93.60
1650;DHT22;822;53.670;8.676;2023-02-23T12:25:51;8.70;93.50
1650;DHT22;822;53.670;8.676;2023-02-23T12:28:24;8.80;93.60
1650;DHT22;822;53.670;8.676;2023-02-23T12:30:59;8.80;93.70
1650;DHT22;822;53.670;8.676;2023-02-23T12:33:34;8.80;93.80
1650;DHT22;822;53.670;8.676;2023-02-23T12:36:11;8.80;93.80
1650;DHT22;822;53.670;8.676;2023-02-23T12:38:47;8.90;93.80
1650;DHT22;822;53.670;8.676;2023-02-23T12:41:20;8.90;93.80
1650;DHT22;822;53.670;8.676;2023-02-23T12:43:54;8.90;93.70
1650;DHT22;822;53.670;8.676;2023-02-23T12:46:26;8.90;93.60
1650;DHT22;822;53.670;8.676;2023-02-23T12:49:03;8.90;92.70
1650;DHT22;822;53.670;8.676;2023-02-23T12:51:34;8.90;93.00
1650;DHT22;822;53.670;8.676;2023-02-23T12:54:03;8.90;93.00
1650;DHT22;822;53.670;8.676;2023-02-23T12:56:44;8.90;93.10
1650;DHT22;822;53.670;8.676;2023-02-23T12:59:19;8.90;93.10
1650;DHT22;822;53.670;8.676;2023-02-23T13:01:53;8.90;93.10
1650;DHT22;822;53.670;8.676;2023-02-23T13:04:44;8.90;92.90
1650;DHT22;822;53.670;8.676;2023-02-23T13:07:20;8.90;93.00
1650;DHT22;822;53.670;8.676;2023-02-23T13:09:59;8.80;93.00
1650;DHT22;822;53.670;8.676;2023-02-23T13:12:39;8.80;92.90
1650;DHT22;822;53.670;8.676;2023-02-23T13:15:17;8.80;92.80
1650;DHT22;822;53.670;8.676;2023-02-23T13:17:54;8.80;92.80
1650;DHT22;822;53.670;8.676;2023-02-23T13:20:31;8.70;92.50
1650;DHT22;822;53.670;8.676;2023-02-23T13:23:08;8.70;92.40
1650;DHT22;822;53.670;8.676;2023-02-23T13:25:45;8.70;92.50
1650;DHT22;822;53.670;8.676;2023-02-23T13:28:18;8.70;92.30
1650;DHT22;822;53.670;8.676;2023-02-23T13:30:46;8.70;92.00
1650;DHT22;822;53.670;8.676;2023-02-23T13:33:24;8.70;92.00
1650;DHT22;822;53.670;8.676;2023-02-23T13:35:54;8.60;91.90
1650;DHT22;822;53.670;8.676;2023-02-23T13:38:28;8.60;92.00
1650;DHT22;822;53.670;8.676;2023-02-23T13:41:04;8.60;92.00
1650;DHT22;822;53.670;8.676;2023-02-23T13:43:43;8.50;92.10
1650;DHT22;822;53.670;8.676;2023-02-23T13:46:24;8.40;92.10
1650;DHT22;822;53.670;8.676;2023-02-23T13:48:57;8.40;92.30
1650;DHT22;822;53.670;8.676;2023-02-23T13:51:34;8.40;92.50
1650;DHT22;822;53.670;8.676;2023-02-23T13:54:05;8.40;92.40
1650;DHT22;822;53.670;8.676;2023-02-23T13:56:49;8.40;92.50
1650;DHT22;822;53.670;8.676;2023-02-23T13:59:20;8.30;92.40
1650;DHT22;822;53.670;8.676;2023-02-23T14:01:50;8.30;92.40
1650;DHT22;822;53.670;8.676;2023-02-23T14:04:22;8.20;92.70
1650;DHT22;822;53.670;8.676;2023-02-23T14:06:53;8.10;92.60
1650;DHT22;822;53.670;8.676;2023-02-23T14:09:25;8.10;92.70
1650;DHT22;822;53.670;8.676;2023-02-23T14:12:00;8.00;92.80
1650;DHT22;822;53.670;8.676;2023-02-23T14:14:40;8.00;92.90
1650;DHT22;822;53.670;8.676;2023-02-23T14:17:37;7.80;92.80
1650;DHT22;822;53.670;8.676;2023-02-23T14:20:13;7.80;92.80
1650;DHT22;822;53.670;8.676;2023-02-23T14:23:26;7.70;92.60
1650;DHT22;822;53.670;8.676;2023-02-23T14:26:12;7.60;92.80
1650;DHT22;822;53.670;8.676;2023-02-23T14:28:42;7.60;92.60
1650;DHT22;822;53.670;8.676;2023-02-23T14:31:21;7.50;92.50
1650;DHT22;822;53.670;8.676;2023-02-23T14:33:58;7.50;92.40
1650;DHT22;822;53.670;8.676;2023-02-23T14:36:41;7.40;92.40
1650;DHT22;822;53.670;8.676;2023-02-23T14:39:17;7.40;92.30
1650;DHT22;822;53.670;8.676;2023-02-23T14:41:49;7.30;91.80
1650;DHT22;822;53.670;8.676;2023-02-23T14:44:18;7.20;91.70
1650;DHT22;822;53.670;8.676;2023-02-23T14:46:55;7.20;91.30
1650;DHT22;822;53.670;8.676;2023-02-23T14:49:25;7.20;91.20
1650;DHT22;822;53.670;8.676;2023-02-23T14:51:53;7.20;91.40
1650;DHT22;822;53.670;8.676;2023-02-23T14:54:25;7.10;91.20
1650;DHT22;822;53.670;8.676;2023-02-23T14:56:54;7.10;90.80
1650;DHT22;822;53.670;8.676;2023-02-23T14:59:25;7.10;90.80
1650;DHT22;822;53.670;8.676;2023-02-23T15:01:54;7.00;90.40
1650;DHT22;822;53.670;8.676;2023-02-23T15:04:26;7.00;90.20
1650;DHT22;822;53.670;8.676;2023-02-23T15:06:57;6.90;90.20
1650;DHT22;822;53.670;8.676;2023-02-23T15:09:33;6.90;90.00
1650;DHT22;822;53.670;8.676;2023-02-23T15:12:10;6.90;89.80
1650;DHT22;822;53.670;8.676;2023-02-23T15:14:37;6.80;89.10
1650;DHT22;822;53.670;8.676;2023-02-23T15:17:08;6.80;89.10
1650;DHT22;822;53.670;8.676;2023-02-23T15:19:39;6.80;89.60
1650;DHT22;822;53.670;8.676;2023-02-23T15:22:06;6.80;89.60
1650;DHT22;822;53.670;8.676;2023-02-23T15:24:43;6.70;89.10
1650;DHT22;822;53.670;8.676;2023-02-23T15:27:19;6.70;89.30
1650;DHT22;822;53.670;8.676;2023-02-23T15:29:49;6.70;87.90
1650;DHT22;822;53.670;8.676;2023-02-23T15:32:18;6.70;87.70
1650;DHT22;822;53.670;8.676;2023-02-23T15:34:46;6.70;87.50
1650;DHT22;822;53.670;8.676;2023-02-23T15:37:19;6.70;87.20
1650;DHT22;822;53.670;8.676;2023-02-23T15:39:52;6.70;87.00
1650;DHT22;822;53.670;8.676;2023-02-23T15:42:24;6.60;87.50
1650;DHT22;822;53.670;8.676;2023-02-23T15:44:57;6.60;87.90
1650;DHT22;822;53.670;8.676;2023-02-23T15:47:30;6.60;88.40
1650;DHT22;822;53.670;8.676;2023-02-23T15:50:15;6.60;88.70
1650;DHT22;822;53.670;8.676;2023-02-23T15:52:46;6.60;88.80
1650;DHT22;822;53.670;8.676;2023-02-23T15:55:22;6.50;87.30
1650;DHT22;822;53.670;8.676;2023-02-23T15:57:55;6.60;86.90
1650;DHT22;822;53.670;8.676;2023-02-23T16:00:29;6.50;85.80
1650;DHT22;822;53.670;8.676;2023-02-23T16:02:59;6.50;84.00
1650;DHT22;822;53.670;8.676;2023-02-23T16:05:29;6.40;84.20
1650;DHT22;822;53.670;8.676;2023-02-23T16:08:04;6.40;84.40
1650;DHT22;822;53.670;8.676;2023-02-23T16:10:42;6.40;84.70
1650;DHT22;822;53.670;8.676;2023-02-23T16:13:13;6.40;84.30
1650;DHT22;822;53.670;8.676;2023-02-23T16:15:42;6.40;83.40
1650;DHT22;822;53.670;8.676;2023-02-23T16:18:13;6.40;83.60
1650;DHT22;822;53.670;8.676;2023-02-23T16:20:45;6.40;84.20
1650;DHT22;822;53.670;8.676;2023-02-23T16:23:22;6.30;84.60
1650;DHT22;822;53.670;8.676;2023-02-23T16:25:57;6.30;84.90
1650;DHT22;822;53.670;8.676;2023-02-23T16:28:28;6.30;84.80
1650;DHT22;822;53.670;8.676;2023-02-23T16:30:59;6.30;85.00
1650;DHT22;822;53.670;8.676;2023-02-23T16:33:28;6.30;84.30
1650;DHT22;822;53.670;8.676;2023-02-23T16:36:13;6.30;83.20
1650;DHT22;822;53.670;8.676;2023-02-23T16:38:45;6.30;83.20
1650;DHT22;822;53.670;8.676;2023-02-23T16:41:19;6.30;82.80
1650;DHT22;822;53.670;8.676;2023-02-23T16:43:47;6.20;82.40
1650;DHT22;822;53.670;8.676;2023-02-23T16:46:15;6.20;83.00
1650;DHT22;822;53.670;8.676;2023-02-23T16:48:42;6.10;83.10
1650;DHT22;822;53.670;8.676;2023-02-23T16:51:13;6.10;83.50
1650;DHT22;822;53.670;8.676;2023-02-23T16:53:41;6.10;83.40
1650;DHT22;822;53.670;8.676;2023-02-23T16:56:10;6.00;80.50
1650;DHT22;822;53.670;8.676;2023-02-23T16:58:42;6.00;80.20
1650;DHT22;822;53.670;8.676;2023-02-23T17:01:11;6.00;80.30
1650;DHT22;822;53.670;8.676;2023-02-23T17:03:40;5.90;80.70
1650;DHT22;822;53.670;8.676;2023-02-23T17:06:10;5.80;80.60
1650;DHT22;822;53.670;8.676;2023-02-23T17:08:58;5.80;80.40
1650;DHT22;822;53.670;8.676;2023-02-23T17:11:55;5.70;80.60
1650;DHT22;822;53.670;8.676;2023-02-23T17:14:39;5.60;80.60
1650;DHT22;822;53.670;8.676;2023-02-23T17:17:18;5.60;81.00
1650;DHT22;822;53.670;8.676;2023-02-23T17:19:46;5.60;81.10
1650;DHT22;822;53.670;8.676;2023-02-23T17:22:13;5.60;81.00
1650;DHT22;822;53.670;8.676;2023-02-23T17:24:41;5.60;80.70
1650;DHT22;822;53.670;8.676;2023-02-23T17:27:08;5.60;80.20